sensor_id;sensor_type;location;lat;lon;timestamp;P1;durP1;ratioP1;P2;durP2;ratioP2
26864;SDS011;40618;51.166;10.322;2024-03-25T00:00:17;3.17;;;1.63;;
26864;SDS011;40618;51.166;10.322;2024-03-25T00:02:43;6.93;;;2.22;;
26864;SDS011;40618;51.166;10.322;2024-03-25T00:05:09;3.63;;;1.40;;
26864;SDS011;40618;51.166;10.322;2024-03-25T00:07:36;5.45;;;1.67;;
26864;SDS011;40618;51.166;10.322;2024-03-25T00:10:04;2.88;;;1.50;;
26864;SDS011;40618;51.166;10.322;2024-03-25T00:12:33;4.05;;;1.80;;
26864;SDS011;40618;51.166;10.322;2024-03-25T00:15:02;3.63;;;1.88;;
26864;SDS011;40618;51.166;10.322;2024-03-25T00:17:28;4.60;;;1.70;;
26864;SDS011;40618;51.166;10.322;2024-03-25T00:19:53;6.45;;;2.28;;
26864;SDS011;40618;51.166;10.322;2024-03-25T00:22:19;5.30;;;1.92;;
26864;SDS011;40618;51.166;10.322;2024-03-25T00:24:47;6.15;;;1.65;;
26864;SDS011;40618;51.166;10.322;2024-03-25T00:27:14;8.20;;;2.17;;
26864;SDS011;40618;51.166;10.322;2024-03-25T00:29:40;1.80;;;1.50;;
26864;SDS011;40618;51.166;10.322;2024-03-25T00:32:06;4.35;;;1.92;;
26864;SDS011;40618;51.166;10.322;2024-03-25T00:34:32;3.45;;;1.55;;
26864;SDS011;40618;51.166;10.322;2024-03-25T00:36:59;4.97;;;2.15;;
26864;SDS011;40618;51.166;10.322;2024-03-25T00:39:25;5.32;;;1.80;;
26864;SDS011;40618;51.166;10.322;2024-03-25T00:41:52;5.45;;;1.88;;
26864;SDS011;40618;51.166;10.322;2024-03-25T00:44:18;7.13;;;1.98;;
26864;SDS011;40618;51.166;10.322;2024-03-25T00:46:44;6.90;;;2.10;;
26864;SDS011;40618;51.166;10.322;2024-03-25T00:49:10;5.22;;;1.63;;
26864;SDS011;40618;51.166;10.322;2024-03-25T00:51:36;5.90;;;1.92;;
26864;SDS011;40618;51.166;10.322;2024-03-25T00:54:02;2.90;;;1.48;;
26864;SDS011;40618;51.166;10.322;2024-03-25T00:56:31;3.22;;;1.80;;
26864;SDS011;40618;51.166;10.322;2024-03-25T00:58:57;4.50;;;1.75;;
26864;SDS011;40618;51.166;10.322;2024-03-25T01:01:27;4.18;;;1.75;;
26864;SDS011;40618;51.166;10.322;2024-03-25T01:03:57;6.25;;;1.70;;
26864;SDS011;40618;51.166;10.322;2024-03-25T01:06:23;6.00;;;2.03;;
26864;SDS011;40618;51.166;10.322;2024-03-25T01:08:49;5.63;;;1.83;;
26864;SDS011;40618;51.166;10.322;2024-03-25T01:11:15;4.28;;;1.70;;
26864;SDS011;40618;51.166;10.322;2024-03-25T01:13:41;4.47;;;1.77;;
26864;SDS011;40618;51.166;10.322;2024-03-25T01:16:07;3.55;;;1.40;;
26864;SDS011;40618;51.166;10.322;2024-03-25T01:18:34;4.55;;;1.67;;
26864;SDS011;40618;51.166;10.322;2024-03-25T01:21:00;4.45;;;1.90;;
26864;SDS011;40618;51.166;10.322;2024-03-25T01:23:25;5.25;;;2.05;;
26864;SDS011;40618;51.166;10.322;2024-03-25T01:25:51;5.90;;;1.80;;
26864;SDS011;40618;51.166;10.322;2024-03-25T01:28:17;3.58;;;1.80;;
26864;SDS011;40618;51.166;10.322;2024-03-25T01:30:43;5.90;;;1.88;;
26864;SDS011;40618;51.166;10.322;2024-03-25T01:33:08;5.20;;;2.25;;
26864;SDS011;40618;51.166;10.322;2024-03-25T01:35:34;5.07;;;2.35;;
26864;SDS011;40618;51.166;10.322;2024-03-25T01:38:00;3.38;;;1.58;;
26864;SDS011;40618;51.166;10.322;2024-03-25T01:40:26;5.38;;;2.22;;
26864;SDS011;40618;51.166;10.322;2024-03-25T01:43:01;7.38;;;1.80;;
26864;SDS011;40618;51.166;10.322;2024-03-25T01:45:34;7.05;;;2.22;;
26864;SDS011;40618;51.166;10.322;2024-03-25T01:48:07;5.03;;;1.63;;
26864;SDS011;40618;51.166;10.322;2024-03-25T01:50:39;5.90;;;1.90;;
26864;SDS011;40618;51.166;10.322;2024-03-25T01:53:09;3.15;;;1.48;;
26864;SDS011;40618;51.166;10.322;2024-03-25T01:55:38;3.75;;;1.40;;
26864;SDS011;40618;51.166;10.322;2024-03-25T01:58:04;4.80;;;1.77;;
26864;SDS011;40618;51.166;10.322;2024-03-25T02:00:31;5.15;;;2.10;;
26864;SDS011;40618;51.166;10.322;2024-03-25T02:02:58;3.95;;;1.60;;
26864;SDS011;40618;51.166;10.322;2024-03-25T02:05:23;10.25;;;2.15;;
26864;SDS011;40618;51.166;10.322;2024-03-25T02:07:49;5.88;;;1.55;;
26864;SDS011;40618;51.166;10.322;2024-03-25T02:10:17;8.13;;;1.73;;
26864;SDS011;40618;51.166;10.322;2024-03-25T02:12:44;5.97;;;1.63;;
26864;SDS011;40618;51.166;10.322;2024-03-25T02:15:11;4.28;;;1.40;;
26864;SDS011;40618;51.166;10.322;2024-03-25T02:17:41;2.25;;;1.05;;
26864;SDS011;40618;51.166;10.322;2024-03-25T02:20:07;6.57;;;2.10;;
26864;SDS011;40618;51.166;10.322;2024-03-25T02:22:35;3.63;;;1.65;;
26864;SDS011;40618;51.166;10.322;2024-03-25T02:25:01;7.30;;;1.55;;
26864;SDS011;40618;51.166;10.322;2024-03-25T02:27:36;2.33;;;1.10;;
26864;SDS011;40618;51.166;10.322;2024-03-25T02:30:06;2.83;;;1.27;;
26864;SDS011;40618;51.166;10.322;2024-03-25T02:32:34;4.53;;;1.70;;
26864;SDS011;40618;51.166;10.322;2024-03-25T02:35:01;4.32;;;1.63;;
26864;SDS011;40618;51.166;10.322;2024-03-25T02:37:31;4.32;;;1.30;;
26864;SDS011;40618;51.166;10.322;2024-03-25T02:39:59;3.50;;;1.42;;
26864;SDS011;40618;51.166;10.322;2024-03-25T02:42:26;5.25;;;1.48;;
26864;SDS011;40618;51.166;10.322;2024-03-25T02:44:56;4.72;;;1.45;;
26864;SDS011;40618;51.166;10.322;2024-03-25T02:47:22;4.43;;;1.30;;
26864;SDS011;40618;51.166;10.322;2024-03-25T02:49:47;4.53;;;1.38;;
26864;SDS011;40618;51.166;10.322;2024-03-25T02:52:13;4.65;;;1.33;;
26864;SDS011;40618;51.166;10.322;2024-03-25T02:54:39;5.28;;;1.40;;
26864;SDS011;40618;51.166;10.322;2024-03-25T02:57:04;2.33;;;1.02;;
26864;SDS011;40618;51.166;10.322;2024-03-25T02:59:30;3.85;;;1.58;;
26864;SDS011;40618;51.166;10.322;2024-03-25T03:01:56;5.05;;;1.10;;
26864;SDS011;40618;51.166;10.322;2024-03-25T03:04:21;3.70;;;1.27;;
26864;SDS011;40618;51.166;10.322;2024-03-25T03:06:47;3.47;;;1.30;;
26864;SDS011;40618;51.166;10.322;2024-03-25T03:09:12;3.85;;;1.55;;
26864;SDS011;40618;51.166;10.322;2024-03-25T03:11:38;5.95;;;1.50;;
26864;SDS011;40618;51.166;10.322;2024-03-25T03:14:03;4.65;;;1.45;;
26864;SDS011;40618;51.166;10.322;2024-03-25T03:16:29;3.78;;;1.48;;
26864;SDS011;40618;51.166;10.322;2024-03-25T03:18:55;3.35;;;1.25;;
26864;SDS011;40618;51.166;10.322;2024-03-25T03:21:21;5.53;;;1.33;;
26864;SDS011;40618;51.166;10.322;2024-03-25T03:23:46;4.43;;;1.33;;
26864;SDS011;40618;51.166;10.322;2024-03-25T03:26:12;2.47;;;1.10;;
26864;SDS011;40618;51.166;10.322;2024-03-25T03:28:38;5.80;;;1.40;;
26864;SDS011;40618;51.166;10.322;2024-03-25T03:31:05;3.80;;;1.85;;
26864;SDS011;40618;51.166;10.322;2024-03-25T03:33:31;4.63;;;1.38;;
26864;SDS011;40618;51.166;10.322;2024-03-25T03:35:57;3.05;;;1.60;;
26864;SDS011;40618;51.166;10.322;2024-03-25T03:38:23;6.47;;;1.50;;
26864;SDS011;40618;51.166;10.322;2024-03-25T03:40:58;5.10;;;1.25;;
26864;SDS011;40618;51.166;10.322;2024-03-25T03:43:26;3.53;;;1.48;;
26864;SDS011;40618;51.166;10.322;2024-03-25T03:45:52;7.43;;;2.05;;
26864;SDS011;40618;51.166;10.322;2024-03-25T03:48:17;5.65;;;1.50;;
26864;SDS011;40618;51.166;10.322;2024-03-25T03:50:43;3.63;;;1.45;;
26864;SDS011;40618;51.166;10.322;2024-03-25T03:53:09;3.88;;;1.63;;
26864;SDS011;40618;51.166;10.322;2024-03-25T03:55:35;2.83;;;1.45;;
26864;SDS011;40618;51.166;10.322;2024-03-25T03:58:01;4.82;;;1.90;;
26864;SDS011;40618;51.166;10.322;2024-03-25T04:00:27;5.18;;;1.40;;
26864;SDS011;40618;51.166;10.322;2024-03-25T04:02:53;6.28;;;1.92;;
26864;SDS011;40618;51.166;10.322;2024-03-25T04:05:19;6.45;;;2.00;;
26864;SDS011;40618;51.166;10.322;2024-03-25T04:07:44;8.23;;;3.17;;
26864;SDS011;40618;51.166;10.322;2024-03-25T04:10:10;11.45;;;4.43;;
26864;SDS011;40618;51.166;10.322;2024-03-25T04:12:36;12.65;;;4.90;;
26864;SDS011;40618;51.166;10.322;2024-03-25T04:15:02;7.35;;;3.80;;
26864;SDS011;40618;51.166;10.322;2024-03-25T04:17:29;6.88;;;3.85;;
26864;SDS011;40618;51.166;10.322;2024-03-25T04:19:54;16.33;;;5.45;;
26864;SDS011;40618;51.166;10.322;2024-03-25T04:22:23;12.05;;;5.20;;
26864;SDS011;40618;51.166;10.322;2024-03-25T04:24:49;12.88;;;5.10;;
26864;SDS011;40618;51.166;10.322;2024-03-25T04:27:14;9.60;;;4.97;;
26864;SDS011;40618;51.166;10.322;2024-03-25T04:29:40;7.90;;;3.83;;
26864;SDS011;40618;51.166;10.322;2024-03-25T04:32:05;5.80;;;4.10;;
26864;SDS011;40618;51.166;10.322;2024-03-25T04:34:31;11.70;;;5.70;;
26864;SDS011;40618;51.166;10.322;2024-03-25T04:36:56;5.72;;;3.00;;
26864;SDS011;40618;51.166;10.322;2024-03-25T04:39:22;5.75;;;2.53;;
26864;SDS011;40618;51.166;10.322;2024-03-25T04:41:48;7.68;;;3.35;;
26864;SDS011;40618;51.166;10.322;2024-03-25T04:44:13;5.70;;;2.20;;
26864;SDS011;40618;51.166;10.322;2024-03-25T04:46:39;5.15;;;2.00;;
26864;SDS011;40618;51.166;10.322;2024-03-25T04:49:05;21.70;;;11.07;;
26864;SDS011;40618;51.166;10.322;2024-03-25T04:51:31;11.82;;;5.63;;
26864;SDS011;40618;51.166;10.322;2024-03-25T04:53:57;7.93;;;4.63;;
26864;SDS011;40618;51.166;10.322;2024-03-25T04:56:23;10.50;;;4.80;;
26864;SDS011;40618;51.166;10.322;2024-03-25T04:58:48;12.40;;;3.65;;
26864;SDS011;40618;51.166;10.322;2024-03-25T05:01:14;12.15;;;4.30;;
26864;SDS011;40618;51.166;10.322;2024-03-25T05:03:39;14.45;;;5.85;;
26864;SDS011;40618;51.166;10.322;2024-03-25T05:06:05;11.57;;;3.65;;
26864;SDS011;40618;51.166;10.322;2024-03-25T05:08:34;13.18;;;5.28;;
26864;SDS011;40618;51.166;10.322;2024-03-25T05:11:00;16.23;;;6.63;;
26864;SDS011;40618;51.166;10.322;2024-03-25T05:13:25;14.82;;;7.10;;
26864;SDS011;40618;51.166;10.322;2024-03-25T05:15:51;12.73;;;5.20;;
26864;SDS011;40618;51.166;10.322;2024-03-25T05:18:17;13.82;;;5.10;;
26864;SDS011;40618;51.166;10.322;2024-03-25T05:20:43;6.80;;;3.25;;
26864;SDS011;40618;51.166;10.322;2024-03-25T05:23:09;7.28;;;3.50;;
26864;SDS011;40618;51.166;10.322;2024-03-25T05:25:36;7.47;;;3.72;;
26864;SDS011;40618;51.166;10.322;2024-03-25T05:28:03;8.45;;;3.17;;
26864;SDS011;40618;51.166;10.322;2024-03-25T05:30:29;7.63;;;3.33;;
26864;SDS011;40618;51.166;10.322;2024-03-25T05:32:55;9.90;;;3.80;;
26864;SDS011;40618;51.166;10.322;2024-03-25T05:35:20;11.98;;;2.90;;
26864;SDS011;40618;51.166;10.322;2024-03-25T05:37:46;8.50;;;3.42;;
26864;SDS011;40618;51.166;10.322;2024-03-25T05:40:12;14.43;;;3.97;;
26864;SDS011;40618;51.166;10.322;2024-03-25T05:42:37;13.68;;;4.20;;
26864;SDS011;40618;51.166;10.322;2024-03-25T05:45:03;7.15;;;2.70;;
26864;SDS011;40618;51.166;10.322;2024-03-25T05:47:29;9.52;;;2.97;;
26864;SDS011;40618;51.166;10.322;2024-03-25T05:49:55;10.63;;;4.57;;
26864;SDS011;40618;51.166;10.322;2024-03-25T05:52:21;6.45;;;2.35;;
26864;SDS011;40618;51.166;10.322;2024-03-25T05:54:47;8.18;;;3.15;;
26864;SDS011;40618;51.166;10.322;2024-03-25T05:57:12;16.52;;;4.47;;
26864;SDS011;40618;51.166;10.322;2024-03-25T05:59:38;8.95;;;3.78;;
26864;SDS011;40618;51.166;10.322;2024-03-25T06:02:03;6.05;;;3.05;;
26864;SDS011;40618;51.166;10.322;2024-03-25T06:04:29;6.40;;;2.42;;
26864;SDS011;40618;51.166;10.322;2024-03-25T06:06:54;6.97;;;1.85;;
26864;SDS011;40618;51.166;10.322;2024-03-25T06:09:20;7.25;;;2.53;;
26864;SDS011;40618;51.166;10.322;2024-03-25T06:11:46;4.80;;;2.33;;
26864;SDS011;40618;51.166;10.322;2024-03-25T06:14:12;8.30;;;2.53;;
26864;SDS011;40618;51.166;10.322;2024-03-25T06:16:37;10.68;;;3.53;;
26864;SDS011;40618;51.166;10.322;2024-03-25T06:19:03;8.52;;;2.88;;
26864;SDS011;40618;51.166;10.322;2024-03-25T06:21:28;4.55;;;2.10;;
26864;SDS011;40618;51.166;10.322;2024-03-25T06:23:54;8.60;;;3.67;;
26864;SDS011;40618;51.166;10.322;2024-03-25T06:26:19;10.00;;;2.95;;
26864;SDS011;40618;51.166;10.322;2024-03-25T06:28:45;9.10;;;3.22;;
26864;SDS011;40618;51.166;10.322;2024-03-25T06:31:10;9.07;;;2.55;;
26864;SDS011;40618;51.166;10.322;2024-03-25T06:33:55;11.40;;;2.90;;
26864;SDS011;40618;51.166;10.322;2024-03-25T06:36:39;8.70;;;3.20;;
26864;SDS011;40618;51.166;10.322;2024-03-25T06:39:05;9.52;;;3.95;;
26864;SDS011;40618;51.166;10.322;2024-03-25T06:41:31;5.25;;;2.15;;
26864;SDS011;40618;51.166;10.322;2024-03-25T06:43:56;14.48;;;5.00;;
26864;SDS011;40618;51.166;10.322;2024-03-25T06:46:22;10.23;;;3.22;;
26864;SDS011;40618;51.166;10.322;2024-03-25T06:48:48;8.00;;;2.53;;
26864;SDS011;40618;51.166;10.322;2024-03-25T06:51:13;6.55;;;2.25;;
26864;SDS011;40618;51.166;10.322;2024-03-25T06:53:39;5.20;;;1.88;;
26864;SDS011;40618;51.166;10.322;2024-03-25T06:56:04;9.02;;;2.03;;
26864;SDS011;40618;51.166;10.322;2024-03-25T06:58:30;7.40;;;2.88;;
26864;SDS011;40618;51.166;10.322;2024-03-25T07:00:56;7.82;;;2.30;;
26864;SDS011;40618;51.166;10.322;2024-03-25T07:03:28;4.53;;;2.03;;
26864;SDS011;40618;51.166;10.322;2024-03-25T07:05:53;6.20;;;1.80;;
26864;SDS011;40618;51.166;10.322;2024-03-25T07:08:20;8.57;;;2.10;;
26864;SDS011;40618;51.166;10.322;2024-03-25T07:10:46;8.43;;;1.90;;
26864;SDS011;40618;51.166;10.322;2024-03-25T07:13:12;13.77;;;2.58;;
26864;SDS011;40618;51.166;10.322;2024-03-25T07:15:38;7.55;;;2.60;;
26864;SDS011;40618;51.166;10.322;2024-03-25T07:18:04;6.45;;;2.50;;
26864;SDS011;40618;51.166;10.322;2024-03-25T07:20:30;7.60;;;2.58;;
26864;SDS011;40618;51.166;10.322;2024-03-25T07:22:57;5.95;;;1.92;;
26864;SDS011;40618;51.166;10.322;2024-03-25T07:25:23;6.28;;;2.67;;
26864;SDS011;40618;51.166;10.322;2024-03-25T07:27:50;9.35;;;2.47;;
26864;SDS011;40618;51.166;10.322;2024-03-25T07:30:17;3.95;;;1.88;;
26864;SDS011;40618;51.166;10.322;2024-03-25T07:32:44;8.52;;;1.52;;
26864;SDS011;40618;51.166;10.322;2024-03-25T07:35:10;8.93;;;2.20;;
26864;SDS011;40618;51.166;10.322;2024-03-25T07:37:36;6.72;;;2.25;;
26864;SDS011;40618;51.166;10.322;2024-03-25T07:40:02;9.60;;;2.05;;
26864;SDS011;40618;51.166;10.322;2024-03-25T07:42:31;8.40;;;2.22;;
26864;SDS011;40618;51.166;10.322;2024-03-25T07:44:56;3.05;;;1.70;;
26864;SDS011;40618;51.166;10.322;2024-03-25T07:47:22;9.32;;;1.60;;
26864;SDS011;40618;51.166;10.322;2024-03-25T07:49:47;5.43;;;1.60;;
26864;SDS011;40618;51.166;10.322;2024-03-25T07:52:13;7.82;;;2.30;;
26864;SDS011;40618;51.166;10.322;2024-03-25T07:54:38;7.97;;;2.05;;
26864;SDS011;40618;51.166;10.322;2024-03-25T07:57:04;5.75;;;1.65;;
26864;SDS011;40618;51.166;10.322;2024-03-25T07:59:30;7.30;;;2.05;;
26864;SDS011;40618;51.166;10.322;2024-03-25T08:01:56;9.27;;;2.03;;
26864;SDS011;40618;51.166;10.322;2024-03-25T08:04:21;4.28;;;1.70;;
26864;SDS011;40618;51.166;10.322;2024-03-25T08:06:47;4.57;;;1.50;;
26864;SDS011;40618;51.166;10.322;2024-03-25T08:09:13;6.93;;;2.13;;
26864;SDS011;40618;51.166;10.322;2024-03-25T08:11:40;6.95;;;1.65;;
26864;SDS011;40618;51.166;10.322;2024-03-25T08:14:08;2.90;;;1.40;;
26864;SDS011;40618;51.166;10.322;2024-03-25T08:16:35;5.22;;;1.75;;
26864;SDS011;40618;51.166;10.322;2024-03-25T08:19:00;6.35;;;1.35;;
26864;SDS011;40618;51.166;10.322;2024-03-25T08:21:26;7.47;;;1.77;;
26864;SDS011;40618;51.166;10.322;2024-03-25T08:23:52;4.30;;;1.20;;
26864;SDS011;40618;51.166;10.322;2024-03-25T08:26:17;3.28;;;1.65;;
26864;SDS011;40618;51.166;10.322;2024-03-25T08:28:43;3.83;;;1.60;;
26864;SDS011;40618;51.166;10.322;2024-03-25T08:31:08;4.70;;;1.20;;
26864;SDS011;40618;51.166;10.322;2024-03-25T08:33:34;4.82;;;1.52;;
26864;SDS011;40618;51.166;10.322;2024-03-25T08:36:00;7.20;;;1.60;;
26864;SDS011;40618;51.166;10.322;2024-03-25T08:38:25;6.00;;;1.58;;
26864;SDS011;40618;51.166;10.322;2024-03-25T08:40:51;4.85;;;1.25;;
26864;SDS011;40618;51.166;10.322;2024-03-25T08:43:17;5.38;;;1.85;;
26864;SDS011;40618;51.166;10.322;2024-03-25T08:45:44;7.57;;;2.38;;
26864;SDS011;40618;51.166;10.322;2024-03-25T08:48:11;9.82;;;1.98;;
26864;SDS011;40618;51.166;10.322;2024-03-25T08:50:36;5.32;;;1.70;;
26864;SDS011;40618;51.166;10.322;2024-03-25T08:53:03;7.40;;;2.00;;
26864;SDS011;40618;51.166;10.322;2024-03-25T08:55:29;5.93;;;1.70;;
26864;SDS011;40618;51.166;10.322;2024-03-25T08:57:56;6.65;;;2.80;;
26864;SDS011;40618;51.166;10.322;2024-03-25T09:00:26;6.93;;;2.10;;
26864;SDS011;40618;51.166;10.322;2024-03-25T09:02:52;5.45;;;1.48;;
26864;SDS011;40618;51.166;10.322;2024-03-25T09:05:19;8.13;;;1.85;;
26864;SDS011;40618;51.166;10.322;2024-03-25T09:07:51;7.10;;;1.77;;
26864;SDS011;40618;51.166;10.322;2024-03-25T09:10:20;6.93;;;1.98;;
26864;SDS011;40618;51.166;10.322;2024-03-25T09:13:04;12.45;;;3.88;;
26864;SDS011;40618;51.166;10.322;2024-03-25T09:15:30;12.77;;;3.53;;
26864;SDS011;40618;51.166;10.322;2024-03-25T09:17:55;8.63;;;2.72;;
26864;SDS011;40618;51.166;10.322;2024-03-25T09:20:21;6.10;;;2.35;;
26864;SDS011;40618;51.166;10.322;2024-03-25T09:22:49;7.60;;;2.60;;
26864;SDS011;40618;51.166;10.322;2024-03-25T09:25:15;8.25;;;2.80;;
26864;SDS011;40618;51.166;10.322;2024-03-25T09:27:41;8.07;;;2.65;;
26864;SDS011;40618;51.166;10.322;2024-03-25T09:30:14;7.05;;;2.55;;
26864;SDS011;40618;51.166;10.322;2024-03-25T09:32:41;4.95;;;2.13;;
26864;SDS011;40618;51.166;10.322;2024-03-25T09:35:07;6.90;;;2.65;;
26864;SDS011;40618;51.166;10.322;2024-03-25T09:37:34;7.22;;;2.35;;
26864;SDS011;40618;51.166;10.322;2024-03-25T09:40:00;6.78;;;2.42;;
26864;SDS011;40618;51.166;10.322;2024-03-25T09:42:26;8.30;;;2.92;;
26864;SDS011;40618;51.166;10.322;2024-03-25T09:44:57;4.68;;;1.90;;
26864;SDS011;40618;51.166;10.322;2024-03-25T09:47:22;4.30;;;1.60;;
26864;SDS011;40618;51.166;10.322;2024-03-25T09:49:48;6.97;;;1.73;;
26864;SDS011;40618;51.166;10.322;2024-03-25T09:52:15;5.60;;;1.80;;
26864;SDS011;40618;51.166;10.322;2024-03-25T09:54:41;6.60;;;1.30;;
26864;SDS011;40618;51.166;10.322;2024-03-25T09:57:07;3.00;;;1.70;;
26864;SDS011;40618;51.166;10.322;2024-03-25T09:59:34;7.68;;;1.65;;
26864;SDS011;40618;51.166;10.322;2024-03-25T10:02:00;3.03;;;1.10;;
26864;SDS011;40618;51.166;10.322;2024-03-25T10:04:28;4.05;;;1.00;;
26864;SDS011;40618;51.166;10.322;2024-03-25T10:06:54;3.63;;;1.15;;
26864;SDS011;40618;51.166;10.322;2024-03-25T10:09:20;3.72;;;1.35;;
26864;SDS011;40618;51.166;10.322;2024-03-25T10:11:49;6.68;;;1.73;;
26864;SDS011;40618;51.166;10.322;2024-03-25T10:14:15;5.07;;;2.40;;
26864;SDS011;40618;51.166;10.322;2024-03-25T10:16:42;7.40;;;2.80;;
26864;SDS011;40618;51.166;10.322;2024-03-25T10:19:09;4.22;;;2.63;;
26864;SDS011;40618;51.166;10.322;2024-03-25T10:21:35;8.90;;;3.97;;
26864;SDS011;40618;51.166;10.322;2024-03-25T10:24:01;4.97;;;2.97;;
26864;SDS011;40618;51.166;10.322;2024-03-25T10:26:33;4.22;;;1.80;;
26864;SDS011;40618;51.166;10.322;2024-03-25T10:29:06;5.13;;;1.63;;
26864;SDS011;40618;51.166;10.322;2024-03-25T10:31:32;7.60;;;1.92;;
26864;SDS011;40618;51.166;10.322;2024-03-25T10:33:59;13.10;;;1.45;;
26864;SDS011;40618;51.166;10.322;2024-03-25T10:36:25;8.77;;;3.58;;
26864;SDS011;40618;51.166;10.322;2024-03-25T10:38:54;10.10;;;5.10;;
26864;SDS011;40618;51.166;10.322;2024-03-25T10:41:22;10.10;;;5.47;;
26864;SDS011;40618;51.166;10.322;2024-03-25T10:43:50;7.55;;;3.65;;
26864;SDS011;40618;51.166;10.322;2024-03-25T10:46:19;11.15;;;4.15;;
26864;SDS011;40618;51.166;10.322;2024-03-25T10:49:10;7.13;;;3.30;;
26864;SDS011;40618;51.166;10.322;2024-03-25T10:52:13;6.38;;;2.42;;
26864;SDS011;40618;51.166;10.322;2024-03-25T10:54:40;4.45;;;2.03;;
26864;SDS011;40618;51.166;10.322;2024-03-25T10:57:08;10.85;;;3.97;;
26864;SDS011;40618;51.166;10.322;2024-03-25T10:59:35;12.27;;;4.97;;
26864;SDS011;40618;51.166;10.322;2024-03-25T11:02:09;5.18;;;2.72;;
26864;SDS011;40618;51.166;10.322;2024-03-25T11:04:36;7.72;;;4.35;;
26864;SDS011;40618;51.166;10.322;2024-03-25T11:07:13;7.68;;;3.47;;
26864;SDS011;40618;51.166;10.322;2024-03-25T11:09:40;11.18;;;5.65;;
26864;SDS011;40618;51.166;10.322;2024-03-25T11:12:10;12.38;;;6.15;;
26864;SDS011;40618;51.166;10.322;2024-03-25T11:14:38;9.50;;;5.15;;
26864;SDS011;40618;51.166;10.322;2024-03-25T11:17:14;9.18;;;4.53;;
26864;SDS011;40618;51.166;10.322;2024-03-25T11:19:43;8.25;;;3.30;;
26864;SDS011;40618;51.166;10.322;2024-03-25T11:22:10;7.63;;;2.35;;
26864;SDS011;40618;51.166;10.322;2024-03-25T11:24:36;5.13;;;2.50;;
26864;SDS011;40618;51.166;10.322;2024-03-25T11:27:05;12.38;;;5.28;;
26864;SDS011;40618;51.166;10.322;2024-03-25T11:29:31;16.88;;;8.57;;
26864;SDS011;40618;51.166;10.322;2024-03-25T11:31:58;6.28;;;3.97;;
26864;SDS011;40618;51.166;10.322;2024-03-25T11:34:29;10.60;;;5.50;;
26864;SDS011;40618;51.166;10.322;2024-03-25T11:36:55;8.77;;;4.57;;
26864;SDS011;40618;51.166;10.322;2024-03-25T11:39:22;9.50;;;5.35;;
26864;SDS011;40618;51.166;10.322;2024-03-25T11:41:49;7.72;;;3.65;;
26864;SDS011;40618;51.166;10.322;2024-03-25T11:44:15;15.27;;;7.03;;
26864;SDS011;40618;51.166;10.322;2024-03-25T11:46:42;28.02;;;9.85;;
26864;SDS011;40618;51.166;10.322;2024-03-25T11:49:13;40.40;;;17.65;;
26864;SDS011;40618;51.166;10.322;2024-03-25T11:51:40;23.73;;;11.57;;
26864;SDS011;40618;51.166;10.322;2024-03-25T11:54:12;29.23;;;12.27;;
26864;SDS011;40618;51.166;10.322;2024-03-25T11:56:38;24.95;;;9.45;;
26864;SDS011;40618;51.166;10.322;2024-03-25T11:59:04;11.90;;;4.30;;
26864;SDS011;40618;51.166;10.322;2024-03-25T12:01:30;24.08;;;9.57;;
26864;SDS011;40618;51.166;10.322;2024-03-25T12:03:56;13.38;;;5.13;;
26864;SDS011;40618;51.166;10.322;2024-03-25T12:06:22;14.13;;;6.47;;
26864;SDS011;40618;51.166;10.322;2024-03-25T12:08:48;9.65;;;3.97;;
26864;SDS011;40618;51.166;10.322;2024-03-25T12:11:32;6.95;;;2.30;;
26864;SDS011;40618;51.166;10.322;2024-03-25T12:13:58;8.13;;;1.75;;
26864;SDS011;40618;51.166;10.322;2024-03-25T12:16:25;4.53;;;1.48;;
26864;SDS011;40618;51.166;10.322;2024-03-25T12:18:51;3.42;;;1.33;;
26864;SDS011;40618;51.166;10.322;2024-03-25T12:21:18;3.38;;;1.45;;
26864;SDS011;40618;51.166;10.322;2024-03-25T12:23:45;3.17;;;1.25;;
26864;SDS011;40618;51.166;10.322;2024-03-25T12:26:12;3.92;;;1.30;;
26864;SDS011;40618;51.166;10.322;2024-03-25T12:28:39;4.75;;;1.50;;
26864;SDS011;40618;51.166;10.322;2024-03-25T12:31:09;6.78;;;1.70;;
26864;SDS011;40618;51.166;10.322;2024-03-25T12:33:43;5.05;;;1.13;;
26864;SDS011;40618;51.166;10.322;2024-03-25T12:36:11;4.23;;;1.50;;
26864;SDS011;40618;51.166;10.322;2024-03-25T12:38:38;6.05;;;1.88;;
26864;SDS011;40618;51.166;10.322;2024-03-25T12:41:04;2.67;;;1.35;;
26864;SDS011;40618;51.166;10.322;2024-03-25T12:43:31;4.38;;;1.40;;
26864;SDS011;40618;51.166;10.322;2024-03-25T12:45:58;3.95;;;1.55;;
26864;SDS011;40618;51.166;10.322;2024-03-25T12:48:24;6.32;;;1.75;;
26864;SDS011;40618;51.166;10.322;2024-03-25T12:50:51;5.28;;;1.33;;
26864;SDS011;40618;51.166;10.322;2024-03-25T12:53:18;5.20;;;1.88;;
26864;SDS011;40618;51.166;10.322;2024-03-25T12:55:47;6.35;;;1.45;;
26864;SDS011;40618;51.166;10.322;2024-03-25T12:58:13;3.38;;;1.40;;
26864;SDS011;40618;51.166;10.322;2024-03-25T13:00:39;4.88;;;1.20;;
26864;SDS011;40618;51.166;10.322;2024-03-25T13:03:06;4.20;;;1.42;;
26864;SDS011;40618;51.166;10.322;2024-03-25T13:05:34;13.70;;;2.22;;
26864;SDS011;40618;51.166;10.322;2024-03-25T13:08:00;6.13;;;1.75;;
26864;SDS011;40618;51.166;10.322;2024-03-25T13:10:27;5.03;;;1.42;;
26864;SDS011;40618;51.166;10.322;2024-03-25T13:12:54;7.82;;;2.30;;
26864;SDS011;40618;51.166;10.322;2024-03-25T13:15:20;3.33;;;1.50;;
26864;SDS011;40618;51.166;10.322;2024-03-25T13:17:46;5.15;;;1.42;;
26864;SDS011;40618;51.166;10.322;2024-03-25T13:20:12;2.67;;;1.35;;
26864;SDS011;40618;51.166;10.322;2024-03-25T13:22:38;3.42;;;1.50;;
26864;SDS011;40618;51.166;10.322;2024-03-25T13:25:05;1.80;;;1.08;;
26864;SDS011;40618;51.166;10.322;2024-03-25T13:27:31;4.88;;;1.25;;
26864;SDS011;40618;51.166;10.322;2024-03-25T13:29:57;4.22;;;1.30;;
26864;SDS011;40618;51.166;10.322;2024-03-25T13:32:23;3.95;;;1.55;;
26864;SDS011;40618;51.166;10.322;2024-03-25T13:34:49;12.80;;;3.55;;
26864;SDS011;40618;51.166;10.322;2024-03-25T13:37:15;4.70;;;1.92;;
26864;SDS011;40618;51.166;10.322;2024-03-25T13:39:41;5.75;;;2.22;;
26864;SDS011;40618;51.166;10.322;2024-03-25T13:42:07;7.85;;;1.90;;
26864;SDS011;40618;51.166;10.322;2024-03-25T13:44:32;3.53;;;1.17;;
26864;SDS011;40618;51.166;10.322;2024-03-25T13:46:58;2.80;;;1.20;;
26864;SDS011;40618;51.166;10.322;2024-03-25T13:49:23;2.90;;;1.10;;
26864;SDS011;40618;51.166;10.322;2024-03-25T13:51:50;3.22;;;1.23;;
26864;SDS011;40618;51.166;10.322;2024-03-25T13:54:21;5.93;;;2.00;;
26864;SDS011;40618;51.166;10.322;2024-03-25T13:56:47;2.78;;;1.65;;
26864;SDS011;40618;51.166;10.322;2024-03-25T13:59:13;3.38;;;1.20;;
26864;SDS011;40618;51.166;10.322;2024-03-25T14:01:38;3.88;;;1.30;;
26864;SDS011;40618;51.166;10.322;2024-03-25T14:04:05;3.35;;;1.05;;
26864;SDS011;40618;51.166;10.322;2024-03-25T14:06:30;3.58;;;1.50;;
26864;SDS011;40618;51.166;10.322;2024-03-25T14:08:57;3.83;;;1.30;;
26864;SDS011;40618;51.166;10.322;2024-03-25T14:11:23;3.97;;;1.35;;
26864;SDS011;40618;51.166;10.322;2024-03-25T14:13:49;2.42;;;1.27;;
26864;SDS011;40618;51.166;10.322;2024-03-25T14:16:15;13.63;;;6.00;;
26864;SDS011;40618;51.166;10.322;2024-03-25T14:18:41;10.30;;;4.30;;
26864;SDS011;40618;51.166;10.322;2024-03-25T14:21:06;5.65;;;3.17;;
26864;SDS011;40618;51.166;10.322;2024-03-25T14:23:32;6.05;;;2.30;;
26864;SDS011;40618;51.166;10.322;2024-03-25T14:25:57;5.15;;;1.40;;
26864;SDS011;40618;51.166;10.322;2024-03-25T14:28:23;4.30;;;1.65;;
26864;SDS011;40618;51.166;10.322;2024-03-25T14:30:49;4.55;;;0.93;;